Time;durP1;ratioP1;P1;durP2;ratioP2;P2;SDS_P1;SDS_P2;PMS_P1;PMS_P2;Temp;Humidity;BMP_temperature;BMP_pressure;BME280_temperature;BME280_humidity;BME280_pressure;Samples;Min_cycle;Max_cycle;Signal;HPM_P1;HPM_P2
2023/12/17 00:02:18;;;;;;;24.63;16.20;;;8.90;99.90;;;;;;5011671;28;20207;-65
2023/12/17 00:04:43;;;;;;;26.50;16.77;;;9.00;99.90;;;;;;5004445;28;20207;-67
2023/12/17 00:07:08;;;;;;;20.93;16.30;;;9.00;99.90;;;;;;5009375;28;20203;-59
2023/12/17 00:09:34;;;;;;;21.80;15.70;;;9.10;99.90;;;;;;5011083;28;20620;-55
2023/12/17 00:11:59;;;;;;;24.00;16.00;;;9.10;99.90;;;;;;5030574;28;20209;-54
2023/12/17 00:14:25;;;;;;;22.00;15.10;;;9.10;99.90;;;;;;5031858;28;20218;-56
2023/12/17 00:16:50;;;;;;;27.53;16.77;;;9.00;99.90;;;;;;5030145;28;21087;-55
2023/12/17 00:19:16;;;;;;;22.50;16.40;;;9.00;99.90;;;;;;5032137;28;20206;-63
2023/12/17 00:21:41;;;;;;;26.03;16.07;;;9.10;99.90;;;;;;5031860;28;20261;-58
2023/12/17 00:24:07;;;;;;;20.23;16.90;;;8.80;99.90;;;;;;5029628;28;20723;-58
2023/12/17 00:26:32;;;;;;;21.63;14.83;;;8.90;99.90;;;;;;5031270;28;20242;-52
2023/12/17 00:28:58;;;;;;;18.47;14.40;;;9.00;99.90;;;;;;5027835;28;20320;-52
2023/12/17 00:31:23;;;;;;;24.10;15.17;;;9.10;99.90;;;;;;5029323;28;20798;-52
2023/12/17 00:33:49;;;;;;;20.63;16.07;;;9.00;99.90;;;;;;5027842;28;20847;-51
2023/12/17 00:36:14;;;;;;;24.37;15.83;;;8.90;99.90;;;;;;5027603;28;20204;-52
2023/12/17 00:38:40;;;;;;;18.97;14.80;;;9.00;99.90;;;;;;5031379;28;20202;-56
2023/12/17 00:41:05;;;;;;;19.37;14.93;;;9.10;99.90;;;;;;5031533;28;20203;-51
2023/12/17 00:43:31;;;;;;;22.70;15.63;;;9.00;99.90;;;;;;5029045;28;20202;-52
2023/12/17 00:45:57;;;;;;;21.17;16.13;;;9.00;99.90;;;;;;5026567;28;20191;-52
2023/12/17 00:48:22;;;;;;;19.67;14.97;;;9.00;99.90;;;;;;5021965;28;20202;-52
2023/12/17 00:50:48;;;;;;;26.50;17.83;;;8.90;99.90;;;;;;5027407;28;20237;-52
2023/12/17 00:53:13;;;;;;;22.10;15.83;;;8.90;99.90;;;;;;5031666;28;20215;-57
2023/12/17 00:55:39;;;;;;;20.10;14.73;;;8.90;99.90;;;;;;5031490;28;20207;-57
2023/12/17 00:58:04;;;;;;;22.40;16.60;;;8.90;99.90;;;;;;5029343;28;20250;-57
2023/12/17 01:00:30;;;;;;;21.77;15.93;;;8.90;99.90;;;;;;5005705;28;20195;-52
2023/12/17 01:02:55;;;;;;;23.97;16.47;;;8.80;99.90;;;;;;5032125;28;20195;-52
2023/12/17 01:05:21;;;;;;;21.83;15.23;;;8.80;99.90;;;;;;5012339;28;20198;-51
2023/12/17 01:07:46;;;;;;;25.63;16.13;;;9.00;99.90;;;;;;5007731;28;20199;-52
2023/12/17 01:10:12;;;;;;;22.37;15.00;;;8.90;99.90;;;;;;5027940;28;20246;-52
2023/12/17 01:12:37;;;;;;;21.30;15.37;;;9.00;99.90;;;;;;5012793;28;20821;-52
2023/12/17 01:15:03;;;;;;;21.80;15.87;;;8.90;99.90;;;;;;5028272;28;20250;-53
2023/12/17 01:17:29;;;;;;;18.63;14.73;;;8.80;99.90;;;;;;5032335;28;20673;-58
2023/12/17 01:19:54;;;;;;;20.97;14.73;;;8.80;99.90;;;;;;5012098;28;20191;-52
2023/12/17 01:22:20;;;;;;;21.60;16.43;;;8.80;99.90;;;;;;5012399;28;20687;-52
2023/12/17 01:24:49;;;;;;;21.20;15.53;;;8.90;99.90;;;;;;5009565;28;20281;-52
2023/12/17 01:27:15;;;;;;;22.17;16.43;;;8.90;99.90;;;;;;5028771;28;20252;-52
2023/12/17 01:29:40;;;;;;;23.50;16.00;;;8.80;99.90;;;;;;5030620;28;20888;-52
2023/12/17 01:32:06;;;;;;;19.80;16.37;;;8.70;99.90;;;;;;5029673;28;20195;-52
2023/12/17 01:34:31;;;;;;;23.60;16.57;;;8.80;99.90;;;;;;5028423;28;20214;-52
2023/12/17 01:36:57;;;;;;;24.07;15.77;;;8.90;99.90;;;;;;5028394;28;20209;-58
2023/12/17 01:39:22;;;;;;;21.47;15.80;;;8.90;99.90;;;;;;5029020;28;20192;-52
2023/12/17 01:41:48;;;;;;;22.63;15.47;;;9.00;99.90;;;;;;5030621;28;20191;-50
2023/12/17 01:44:13;;;;;;;22.20;16.87;;;8.90;99.90;;;;;;5026246;28;20201;-50
2023/12/17 01:46:40;;;;;;;21.30;16.90;;;8.80;99.90;;;;;;5027977;28;20190;-53
2023/12/17 01:49:06;;;;;;;21.57;16.50;;;8.80;99.90;;;;;;5029980;28;20226;-51
2023/12/17 01:51:33;;;;;;;20.10;14.97;;;8.80;99.90;;;;;;5028544;28;20748;-53
2023/12/17 01:53:59;;;;;;;22.00;16.20;;;8.80;99.90;;;;;;5026306;28;20230;-50
2023/12/17 01:56:25;;;;;;;22.60;15.20;;;8.90;99.90;;;;;;5026328;28;20254;-50
2023/12/17 01:58:52;;;;;;;21.23;15.83;;;8.90;99.90;;;;;;5027146;28;20206;-50
2023/12/17 02:01:18;;;;;;;20.53;14.37;;;8.80;99.90;;;;;;5010088;28;20357;-50
2023/12/17 02:03:43;;;;;;;20.17;15.37;;;8.90;99.90;;;;;;5032430;28;20657;-51
2023/12/17 02:06:09;;;;;;;23.33;17.50;;;8.90;99.90;;;;;;5022626;28;20744;-51
2023/12/17 02:08:36;;;;;;;19.00;14.93;;;8.90;99.90;;;;;;5025352;28;20203;-51
2023/12/17 02:11:01;;;;;;;23.60;17.30;;;8.90;99.90;;;;;;5025623;28;20190;-52
2023/12/17 02:13:27;;;;;;;24.03;15.87;;;8.90;99.90;;;;;;5029664;28;20287;-54
2023/12/17 02:15:52;;;;;;;17.67;14.47;;;9.00;99.90;;;;;;5033377;28;20628;-52
2023/12/17 02:18:18;;;;;;;18.80;14.97;;;8.90;99.90;;;;;;5013285;28;20229;-52
2023/12/17 02:20:44;;;;;;;24.47;16.17;;;9.00;99.90;;;;;;5031644;28;20823;-52
2023/12/17 02:23:09;;;;;;;24.47;15.57;;;9.00;99.90;;;;;;5011400;28;20200;-50
2023/12/17 02:25:35;;;;;;;22.40;17.80;;;9.00;99.90;;;;;;5029194;28;20245;-51
2023/12/17 02:28:01;;;;;;;19.57;16.23;;;9.00;99.90;;;;;;5029003;28;20203;-51
2023/12/17 02:30:26;;;;;;;18.10;15.00;;;8.90;99.90;;;;;;5026017;28;20203;-51
2023/12/17 02:32:52;;;;;;;25.40;16.77;;;8.80;99.90;;;;;;5014827;28;20272;-50
2023/12/17 02:35:18;;;;;;;21.70;16.27;;;8.80;99.90;;;;;;5030794;28;20476;-50
2023/12/17 02:37:43;;;;;;;22.10;15.87;;;8.90;99.90;;;;;;5027033;28;20221;-51
2023/12/17 02:40:09;;;;;;;18.90;14.80;;;8.90;99.90;;;;;;5028606;28;20203;-51
2023/12/17 02:42:35;;;;;;;19.73;14.67;;;8.90;99.90;;;;;;5027762;28;20275;-51
2023/12/17 02:45:00;;;;;;;22.10;16.30;;;9.00;99.90;;;;;;5028855;28;20632;-51
2023/12/17 02:47:26;;;;;;;21.00;15.43;;;9.00;99.90;;;;;;5031697;28;20262;-51
2023/12/17 02:49:51;;;;;;;23.07;15.17;;;9.10;99.90;;;;;;5015687;28;20578;-50
2023/12/17 02:52:18;;;;;;;16.87;14.50;;;9.20;99.90;;;;;;5031706;28;20234;-50
2023/12/17 02:54:44;;;;;;;19.57;15.37;;;9.20;99.90;;;;;;5030721;28;20207;-51
2023/12/17 02:57:09;;;;;;;21.50;13.97;;;9.20;99.90;;;;;;5015563;28;20267;-51
2023/12/17 02:59:35;;;;;;;19.97;15.10;;;9.10;99.90;;;;;;5030472;28;20230;-58
2023/12/17 03:02:00;;;;;;;20.70;15.10;;;9.10;99.90;;;;;;5031265;28;20206;-51
2023/12/17 03:04:25;;;;;;;22.17;15.37;;;9.00;99.90;;;;;;5030079;28;20649;-51
2023/12/17 03:06:51;;;;;;;26.70;15.53;;;9.10;99.90;;;;;;5028056;28;20226;-51
2023/12/17 03:09:17;;;;;;;20.57;15.80;;;9.00;99.90;;;;;;5032473;28;20191;-51
2023/12/17 03:11:42;;;;;;;27.20;17.17;;;9.10;99.90;;;;;;5030727;28;20735;-51
2023/12/17 03:14:08;;;;;;;21.23;15.33;;;9.10;99.90;;;;;;5015440;28;20277;-51
2023/12/17 03:16:34;;;;;;;21.53;15.87;;;9.20;99.90;;;;;;5031310;28;20612;-51
2023/12/17 03:18:59;;;;;;;20.07;15.83;;;9.40;99.90;;;;;;5014758;28;20197;-51
2023/12/17 03:21:26;;;;;;;16.60;13.23;;;9.70;99.90;;;;;;5032430;28;20203;-51
2023/12/17 03:23:53;;;;;;;18.43;15.23;;;9.80;99.90;;;;;;5032168;28;20561;-50
2023/12/17 03:26:18;;;;;;;18.23;14.83;;;9.50;99.90;;;;;;5026046;28;20847;-50
2023/12/17 03:28:44;;;;;;;18.93;14.47;;;9.40;99.90;;;;;;5021924;28;20201;-50
2023/12/17 03:31:16;;;;;;;16.83;12.77;;;9.50;99.90;;;;;;5024495;28;20201;-49
2023/12/17 03:33:43;;;;;;;17.17;13.53;;;9.40;99.90;;;;;;5026394;28;20261;-50
2023/12/17 03:36:13;;;;;;;19.37;14.00;;;9.30;99.90;;;;;;5027923;28;20204;-50
2023/12/17 03:38:38;;;;;;;18.23;14.97;;;9.20;99.90;;;;;;5030706;28;20199;-50
2023/12/17 03:41:04;;;;;;;23.60;16.07;;;9.20;99.90;;;;;;5010820;28;20202;-50
2023/12/17 03:43:29;;;;;;;17.30;14.43;;;9.20;99.90;;;;;;5031725;28;20203;-50
2023/12/17 03:45:54;;;;;;;17.47;14.33;;;9.30;99.90;;;;;;5024326;28;20845;-50
2023/12/17 03:48:20;;;;;;;20.23;14.97;;;9.30;99.90;;;;;;5029941;28;20209;-50
2023/12/17 03:50:46;;;;;;;18.43;14.83;;;9.50;99.90;;;;;;5028489;28;20206;-50
2023/12/17 03:53:11;;;;;;;16.23;14.53;;;9.40;99.90;;;;;;5034396;28;20302;-50
2023/12/17 03:55:37;;;;;;;16.73;14.57;;;9.40;99.90;;;;;;5014537;28;20293;-50
2023/12/17 03:58:03;;;;;;;18.90;15.00;;;9.40;99.90;;;;;;5032448;28;20198;-50
2023/12/17 04:00:29;;;;;;;17.00;13.50;;;9.40;99.90;;;;;;5032317;28;20214;-50
2023/12/17 04:02:54;;;;;;;18.37;15.10;;;9.20;99.90;;;;;;5032715;28;20688;-50
2023/12/17 04:05:20;;;;;;;20.50;15.40;;;9.40;99.90;;;;;;5030923;28;20834;-50
2023/12/17 04:07:46;;;;;;;26.70;15.80;;;9.30;99.90;;;;;;5032142;28;20204;-50
2023/12/17 04:10:11;;;;;;;21.90;15.73;;;9.30;99.90;;;;;;5032112;28;20242;-50
2023/12/17 04:12:36;;;;;;;18.00;15.23;;;9.20;99.90;;;;;;5031971;28;20195;-50
2023/12/17 04:15:02;;;;;;;20.80;14.80;;;9.20;99.90;;;;;;5014068;28;20671;-51
2023/12/17 04:17:29;;;;;;;18.50;15.07;;;9.10;99.90;;;;;;5013959;28;20195;-51
2023/12/17 04:19:54;;;;;;;20.43;15.47;;;9.00;99.90;;;;;;5032261;28;20199;-51
2023/12/17 04:22:20;;;;;;;18.00;14.67;;;9.00;99.90;;;;;;5030143;28;20213;-50
2023/12/17 04:24:45;;;;;;;19.73;16.57;;;9.10;99.90;;;;;;5025074;28;20222;-50
2023/12/17 04:27:11;;;;;;;24.70;16.17;;;9.10;99.90;;;;;;5031656;28;20204;-50
2023/12/17 04:29:36;;;;;;;19.20;14.70;;;9.10;99.90;;;;;;5032167;28;20207;-50
2023/12/17 04:32:02;;;;;;;22.13;15.63;;;9.10;99.90;;;;;;5028138;28;20198;-51
2023/12/17 04:34:28;;;;;;;19.23;14.70;;;9.20;99.90;;;;;;5031657;28;20360;-51
2023/12/17 04:36:55;;;;;;;16.60;13.80;;;9.20;99.90;;;;;;5028489;28;20516;-51
2023/12/17 04:39:21;;;;;;;20.57;15.30;;;9.20;99.90;;;;;;5032111;28;20782;-51
2023/12/17 04:41:46;;;;;;;20.33;15.70;;;9.30;99.90;;;;;;5029446;28;20196;-51
2023/12/17 04:44:12;;;;;;;19.53;14.83;;;9.40;99.90;;;;;;5026457;28;20416;-50
2023/12/17 04:46:38;;;;;;;19.57;14.90;;;9.40;99.90;;;;;;5031629;28;20205;-52
2023/12/17 04:49:03;;;;;;;19.50;15.47;;;9.30;99.90;;;;;;5032024;28;20266;-51
2023/12/17 04:51:29;;;;;;;20.83;15.17;;;9.20;99.90;;;;;;5029623;28;20183;-51
2023/12/17 04:53:54;;;;;;;23.03;16.30;;;9.20;99.90;;;;;;5008295;28;20274;-51
2023/12/17 04:56:21;;;;;;;19.03;15.97;;;9.10;99.90;;;;;;5032295;28;20773;-51
2023/12/17 04:58:47;;;;;;;21.00;14.90;;;9.10;99.90;;;;;;5031919;28;20202;-51
2023/12/17 05:01:12;;;;;;;21.43;15.50;;;9.00;99.90;;;;;;5013754;28;20203;-51
2023/12/17 05:03:38;;;;;;;22.10;15.63;;;9.10;99.90;;;;;;5031336;28;20195;-51
2023/12/17 05:06:05;;;;;;;20.50;15.20;;;9.20;99.90;;;;;;5031262;28;20196;-51
2023/12/17 05:08:31;;;;;;;20.47;14.37;;;9.00;99.90;;;;;;5028543;28;20220;-51
2023/12/17 05:10:56;;;;;;;18.23;14.37;;;9.10;99.90;;;;;;5033349;28;20584;-53
2023/12/17 05:13:22;;;;;;;20.93;15.07;;;9.20;99.90;;;;;;5031037;28;20772;-51
2023/12/17 05:15:47;;;;;;;19.63;14.50;;;9.10;99.90;;;;;;5030767;28;20281;-51
2023/12/17 05:18:13;;;;;;;19.73;15.50;;;9.20;99.90;;;;;;5029141;28;20626;-51
2023/12/17 05:20:39;;;;;;;17.37;14.10;;;9.20;99.90;;;;;;5027286;28;20683;-52
2023/12/17 05:23:05;;;;;;;19.53;13.50;;;9.10;99.90;;;;;;5009672;28;20202;-53
2023/12/17 05:25:31;;;;;;;18.60;14.73;;;9.00;99.90;;;;;;5028203;28;20199;-51
2023/12/17 05:27:56;;;;;;;17.17;13.73;;;9.10;99.90;;;;;;5015787;28;20191;-50
2023/12/17 05:30:22;;;;;;;18.63;14.20;;;9.20;99.90;;;;;;5030338;28;20199;-51
2023/12/17 05:32:48;;;;;;;19.07;13.70;;;9.30;99.90;;;;;;5030982;28;20735;-51
2023/12/17 05:35:14;;;;;;;18.40;13.50;;;9.40;99.90;;;;;;5022911;28;20217;-51
2023/12/17 05:37:39;;;;;;;17.03;13.67;;;9.40;99.90;;;;;;5009201;28;20203;-59
2023/12/17 05:40:06;;;;;;;19.40;14.67;;;9.40;99.90;;;;;;5031165;28;20197;-51
2023/12/17 05:42:32;;;;;;;15.87;13.90;;;9.40;99.90;;;;;;5012988;28;20198;-57
2023/12/17 05:44:58;;;;;;;19.67;13.77;;;9.30;99.90;;;;;;5027321;28;20699;-50
2023/12/17 05:47:23;;;;;;;18.33;13.83;;;9.20;99.90;;;;;;5026359;28;20287;-50
2023/12/17 05:49:49;;;;;;;18.33;13.80;;;9.30;99.90;;;;;;5030101;28;20282;-50
2023/12/17 05:52:15;;;;;;;16.70;12.57;;;9.20;99.90;;;;;;5030938;28;20211;-51
2023/12/17 05:54:42;;;;;;;17.20;12.67;;;9.30;99.90;;;;;;5034216;28;20224;-51
2023/12/17 05:57:08;;;;;;;16.57;13.33;;;9.30;99.90;;;;;;5030807;28;20306;-51
2023/12/17 05:59:33;;;;;;;19.03;13.73;;;9.40;99.90;;;;;;5031988;28;20278;-51
2023/12/17 06:01:59;;;;;;;17.87;13.10;;;9.40;99.90;;;;;;5035068;28;20199;-57
2023/12/17 06:04:25;;;;;;;15.43;13.63;;;9.30;99.90;;;;;;5030101;28;20196;-57
2023/12/17 06:06:50;;;;;;;19.57;11.90;;;9.40;99.90;;;;;;5030633;28;20203;-52
2023/12/17 06:09:16;;;;;;;15.80;13.37;;;9.40;99.90;;;;;;5030781;28;20231;-51
2023/12/17 06:11:41;;;;;;;16.80;12.73;;;9.30;99.90;;;;;;5032237;28;21103;-51
2023/12/17 06:14:07;;;;;;;16.10;12.23;;;9.40;99.90;;;;;;5035122;28;20214;-56
2023/12/17 06:16:33;;;;;;;18.47;12.33;;;9.20;99.90;;;;;;5006238;28;20326;-50
2023/12/17 06:18:58;;;;;;;15.67;13.37;;;9.30;99.90;;;;;;5012358;28;21108;-51
2023/12/17 06:21:26;;;;;;;18.53;13.27;;;9.10;99.90;;;;;;5034096;28;20222;-50
2023/12/17 06:23:57;;;;;;;13.97;12.33;;;9.10;99.90;;;;;;5028660;28;20214;-51
2023/12/17 06:26:26;;;;;;;14.93;12.13;;;9.20;99.90;;;;;;5029866;28;20200;-51
2023/12/17 06:28:51;;;;;;;14.60;12.03;;;9.20;99.90;;;;;;5015250;28;20199;-51
2023/12/17 06:31:17;;;;;;;14.23;12.00;;;9.20;99.90;;;;;;5034336;28;20265;-51
2023/12/17 06:33:43;;;;;;;14.53;11.43;;;9.30;99.90;;;;;;5032126;28;20238;-51
2023/12/17 06:36:09;;;;;;;15.63;11.67;;;9.20;99.90;;;;;;5034250;28;20271;-51
2023/12/17 06:38:34;;;;;;;14.53;12.17;;;9.30;99.90;;;;;;5034235;28;20206;-51
2023/12/17 06:41:00;;;;;;;13.47;11.27;;;9.30;99.90;;;;;;5033692;28;20237;-52
2023/12/17 06:43:26;;;;;;;15.03;11.90;;;9.30;99.90;;;;;;5033023;28;20821;-51
2023/12/17 06:45:51;;;;;;;13.43;12.03;;;9.40;99.90;;;;;;5029495;28;20286;-51
2023/12/17 06:48:17;;;;;;;16.40;10.87;;;9.30;99.90;;;;;;5032061;28;20531;-52
2023/12/17 06:50:43;;;;;;;15.53;12.90;;;9.30;99.90;;;;;;5030876;28;20191;-52
2023/12/17 06:53:08;;;;;;;13.63;10.80;;;9.30;99.90;;;;;;5033834;28;20631;-51
2023/12/17 06:55:34;;;;;;;13.43;10.90;;;9.20;99.90;;;;;;5014163;28;20807;-51
2023/12/17 06:57:59;;;;;;;16.07;12.07;;;9.10;99.90;;;;;;5033634;28;20245;-49
2023/12/17 07:00:25;;;;;;;15.07;11.20;;;9.30;99.90;;;;;;5027571;28;20215;-52
2023/12/17 07:02:51;;;;;;;12.13;10.83;;;9.40;99.90;;;;;;5030561;28;20206;-52
2023/12/17 07:05:16;;;;;;;13.33;11.07;;;9.50;99.90;;;;;;5034385;28;20307;-52
2023/12/17 07:07:47;;;;;;;13.23;10.60;;;9.40;99.90;;;;;;5030052;28;20552;-52
2023/12/17 07:10:12;;;;;;;12.83;10.00;;;9.50;99.90;;;;;;5029503;28;20690;-49
2023/12/17 07:12:38;;;;;;;11.73;10.20;;;9.50;99.90;;;;;;5033092;28;20210;-50
2023/12/17 07:15:04;;;;;;;13.40;10.10;;;9.40;99.90;;;;;;5015504;28;20303;-50
2023/12/17 07:17:30;;;;;;;11.67;10.37;;;9.40;99.90;;;;;;5029206;28;20614;-50
2023/12/17 07:19:55;;;;;;;14.43;10.03;;;9.40;99.90;;;;;;5029281;28;20728;-50
2023/12/17 07:22:22;;;;;;;10.13;9.13;;;9.40;99.90;;;;;;5035096;28;20262;-50
2023/12/17 07:24:51;;;;;;;13.23;10.03;;;9.50;99.90;;;;;;5031163;28;20542;-50
2023/12/17 07:27:16;;;;;;;12.97;10.70;;;9.50;99.90;;;;;;5030380;28;20241;-51
2023/12/17 07:29:42;;;;;;;11.63;9.70;;;9.50;99.90;;;;;;5030185;28;21047;-51
2023/12/17 07:32:08;;;;;;;10.97;8.70;;;9.50;99.90;;;;;;5031181;28;20692;-51
2023/12/17 07:34:33;;;;;;;9.80;8.47;;;9.50;99.90;;;;;;5015008;28;20214;-51
2023/12/17 07:37:02;;;;;;;10.93;9.73;;;9.50;99.90;;;;;;5032936;28;21059;-50
2023/12/17 07:39:28;;;;;;;11.23;9.00;;;9.40;99.90;;;;;;5028657;28;20203;-50
2023/12/17 07:41:53;;;;;;;10.40;8.70;;;9.30;99.90;;;;;;5032839;28;20215;-50
2023/12/17 07:44:19;;;;;;;11.20;9.07;;;9.30;99.90;;;;;;5026987;28;20243;-51
2023/12/17 07:46:45;;;;;;;10.60;9.17;;;9.30;99.90;;;;;;5029340;28;20198;-51
2023/12/17 07:49:10;;;;;;;9.30;8.33;;;9.40;99.90;;;;;;5031855;28;20206;-51
2023/12/17 07:51:38;;;;;;;9.73;8.73;;;9.40;99.90;;;;;;5010507;28;20704;-51
2023/12/17 07:54:04;;;;;;;10.40;9.10;;;9.40;99.90;;;;;;5032665;28;20731;-51
2023/12/17 07:56:30;;;;;;;11.87;9.40;;;9.50;99.90;;;;;;5031830;28;20729;-52
2023/12/17 07:58:56;;;;;;;9.50;8.53;;;9.60;99.90;;;;;;5028669;28;20256;-51
2023/12/17 08:01:28;;;;;;;8.97;8.07;;;9.50;99.90;;;;;;5032755;28;20214;-51
2023/12/17 08:03:54;;;;;;;10.43;8.63;;;9.40;99.90;;;;;;5032497;28;20211;-50
2023/12/17 08:06:19;;;;;;;8.93;7.60;;;9.50;99.90;;;;;;5032630;28;20282;-51
2023/12/17 08:08:45;;;;;;;8.43;7.53;;;9.60;99.90;;;;;;5029142;28;20905;-50
2023/12/17 08:11:12;;;;;;;9.77;8.33;;;9.50;99.90;;;;;;5014198;28;20241;-51
2023/12/17 08:13:37;;;;;;;9.67;8.53;;;9.50;99.90;;;;;;5031227;28;20578;-51
2023/12/17 08:16:03;;;;;;;8.43;7.57;;;9.70;99.90;;;;;;5031889;28;20216;-51
2023/12/17 08:18:29;;;;;;;10.73;7.97;;;9.70;99.90;;;;;;5031282;28;20678;-51
2023/12/17 08:20:54;;;;;;;9.37;7.20;;;9.50;99.90;;;;;;5028269;28;21053;-51
2023/12/17 08:23:20;;;;;;;9.23;8.33;;;9.60;99.90;;;;;;5031425;28;20253;-51
2023/12/17 08:25:45;;;;;;;9.23;8.17;;;9.70;99.90;;;;;;5030733;28;20202;-50
2023/12/17 08:28:11;;;;;;;8.13;7.33;;;9.70;99.90;;;;;;5028641;28;20259;-51
2023/12/17 08:30:42;;;;;;;9.43;7.37;;;9.60;99.90;;;;;;5032002;28;20214;-53
2023/12/17 08:33:07;;;;;;;8.03;7.23;;;9.50;99.90;;;;;;5030043;28;20199;-52
2023/12/17 08:35:36;;;;;;;8.17;7.27;;;9.60;99.90;;;;;;5032233;28;20773;-51
2023/12/17 08:38:05;;;;;;;9.63;8.63;;;9.60;99.90;;;;;;5032702;28;20679;-51
2023/12/17 08:40:32;;;;;;;7.70;6.90;;;9.70;99.90;;;;;;5032241;28;20203;-51
2023/12/17 08:42:58;;;;;;;8.73;7.77;;;9.60;99.90;;;;;;5026644;28;20294;-51
2023/12/17 08:45:24;;;;;;;8.10;7.30;;;9.50;99.90;;;;;;5027279;28;20203;-51
2023/12/17 08:47:49;;;;;;;9.33;7.50;;;9.50;99.90;;;;;;5027547;28;20207;-51
2023/12/17 08:50:15;;;;;;;9.00;7.50;;;9.60;99.90;;;;;;5027087;28;20211;-52
2023/12/17 08:52:41;;;;;;;7.83;6.70;;;9.60;99.90;;;;;;5025540;28;20214;-52
2023/12/17 08:55:06;;;;;;;9.17;7.30;;;9.80;99.90;;;;;;5012503;28;20230;-51
2023/12/17 08:57:32;;;;;;;8.07;7.13;;;9.70;99.90;;;;;;5031708;28;20677;-52
2023/12/17 08:59:57;;;;;;;8.13;7.20;;;9.70;99.90;;;;;;5027437;28;20270;-55
2023/12/17 09:02:23;;;;;;;10.90;7.77;;;9.70;99.90;;;;;;5012132;28;20233;-55
2023/12/17 09:04:51;;;;;;;7.53;6.63;;;9.70;99.90;;;;;;5013370;28;20198;-56
2023/12/17 09:07:17;;;;;;;8.97;7.27;;;9.60;99.90;;;;;;5025593;28;20202;-57
2023/12/17 09:09:43;;;;;;;8.63;7.83;;;9.70;99.90;;;;;;5026688;28;20202;-54
2023/12/17 09:12:09;;;;;;;7.03;6.03;;;9.50;99.90;;;;;;5027904;28;20853;-57
2023/12/17 09:14:35;;;;;;;8.90;7.17;;;9.50;99.90;;;;;;5025682;28;20529;-55
2023/12/17 09:17:01;;;;;;;7.93;7.17;;;9.50;99.90;;;;;;5025888;28;20720;-57
2023/12/17 09:19:27;;;;;;;8.20;7.03;;;9.60;99.90;;;;;;5024175;28;20199;-57
2023/12/17 09:21:53;;;;;;;9.07;6.93;;;9.60;99.90;;;;;;5009389;28;20941;-54
2023/12/17 09:24:19;;;;;;;7.30;6.43;;;9.60;99.90;;;;;;5023949;28;20203;-54
2023/12/17 09:26:45;;;;;;;8.90;7.60;;;9.60;99.90;;;;;;5028563;28;20744;-54
2023/12/17 09:29:10;;;;;;;8.10;6.17;;;9.80;99.90;;;;;;5028940;28;20213;-55
2023/12/17 09:31:36;;;;;;;9.07;7.70;;;9.70;99.90;;;;;;5031087;28;20997;-63
2023/12/17 09:34:01;;;;;;;7.30;6.50;;;9.60;99.90;;;;;;5016338;28;20219;-67
2023/12/17 09:36:27;;;;;;;12.20;7.50;;;9.70;99.90;;;;;;5028349;28;20207;-63
2023/12/17 09:38:53;;;;;;;7.67;6.97;;;9.60;99.90;;;;;;5029200;28;20196;-64
2023/12/17 09:41:19;;;;;;;7.80;7.10;;;9.60;99.90;;;;;;5014285;28;20349;-54
2023/12/17 09:43:45;;;;;;;9.50;7.87;;;9.60;99.90;;;;;;5020626;28;20799;-55
2023/12/17 09:46:11;;;;;;;7.70;6.90;;;9.70;99.90;;;;;;5030157;28;20275;-56
2023/12/17 09:48:37;;;;;;;8.37;7.57;;;9.60;99.90;;;;;;5028645;28;21668;-55
2023/12/17 09:51:03;;;;;;;7.97;7.17;;;9.70;99.90;;;;;;5029752;28;20951;-55
2023/12/17 09:53:34;;;;;;;7.17;6.47;;;9.70;99.90;;;;;;5029668;28;21085;-67
2023/12/17 09:55:59;;;;;;;7.87;6.87;;;9.70;99.90;;;;;;5033569;28;20198;-55
2023/12/17 09:58:29;;;;;;;7.17;6.47;;;9.70;99.90;;;;;;5034595;28;20609;-56
2023/12/17 10:00:54;;;;;;;8.57;7.63;;;9.70;99.90;;;;;;5030370;28;20332;-69
2023/12/17 10:03:21;;;;;;;7.03;6.33;;;9.70;99.90;;;;;;5034125;28;20274;-62
2023/12/17 10:05:53;;;;;;;8.20;6.83;;;9.90;99.90;;;;;;5031617;28;20192;-55
2023/12/17 10:08:19;;;;;;;7.00;6.27;;;10.40;99.90;;;;;;5026210;28;20203;-55
2023/12/17 10:10:45;;;;;;;7.17;6.47;;;10.50;99.90;;;;;;5025761;28;20200;-55
2023/12/17 10:13:16;;;;;;;7.40;6.70;;;10.60;99.90;;;;;;5027651;28;20211;-55
2023/12/17 10:15:42;;;;;;;7.60;6.60;;;10.70;99.90;;;;;;5026199;28;20223;-65
2023/12/17 10:18:08;;;;;;;7.10;6.40;;;10.40;99.90;;;;;;5033850;28;20570;-55
2023/12/17 10:20:33;;;;;;;9.37;7.10;;;10.50;99.90;;;;;;5032143;28;20207;-53
2023/12/17 10:23:02;;;;;;;7.07;6.37;;;10.30;99.90;;;;;;5029148;28;20233;-55
2023/12/17 10:25:28;;;;;;;7.70;6.67;;;10.50;99.90;;;;;;5031107;28;20195;-60
2023/12/17 10:27:59;;;;;;;7.17;6.47;;;10.40;99.90;;;;;;5029787;28;20194;-65
2023/12/17 10:30:30;;;;;;;7.20;6.50;;;10.30;99.90;;;;;;5026537;28;20601;-64
2023/12/17 10:32:57;;;;;;;6.27;5.67;;;10.30;99.90;;;;;;5011760;28;20280;-56
2023/12/17 10:35:26;;;;;;;6.67;5.63;;;10.30;99.90;;;;;;5028735;28;20806;-55
2023/12/17 10:37:55;;;;;;;7.73;6.37;;;10.50;99.90;;;;;;5029472;28;20219;-63
2023/12/17 10:40:21;;;;;;;7.20;6.50;;;10.30;99.90;;;;;;5015904;28;20212;-55
2023/12/17 10:42:48;;;;;;;7.47;6.73;;;10.20;99.90;;;;;;5030484;28;20202;-55
2023/12/17 10:45:16;;;;;;;8.07;6.67;;;10.20;99.90;;;;;;5027575;28;20208;-55
2023/12/17 10:47:43;;;;;;;6.53;5.73;;;10.50;99.90;;;;;;5033223;28;20674;-55
2023/12/17 10:50:09;;;;;;;6.60;6.00;;;10.70;99.90;;;;;;5030117;28;20199;-54
2023/12/17 10:52:37;;;;;;;7.43;6.40;;;10.60;99.90;;;;;;5033612;28;20290;-54
2023/12/17 10:55:03;;;;;;;8.10;6.63;;;10.30;99.90;;;;;;5033434;28;20211;-54
2023/12/17 10:57:29;;;;;;;8.80;6.00;;;10.10;99.90;;;;;;5032546;28;20273;-55
2023/12/17 10:59:57;;;;;;;6.93;6.33;;;10.00;99.90;;;;;;5030680;28;20224;-55
2023/12/17 11:02:25;;;;;;;6.27;5.67;;;10.00;99.90;;;;;;5028127;28;20643;-54
2023/12/17 11:04:51;;;;;;;6.00;5.40;;;10.10;99.90;;;;;;5014485;28;20211;-54
2023/12/17 11:07:18;;;;;;;8.47;7.17;;;9.90;99.90;;;;;;5031473;28;20200;-55
2023/12/17 11:09:45;;;;;;;7.77;6.90;;;10.00;99.90;;;;;;5031884;28;20202;-55
2023/12/17 11:12:14;;;;;;;7.50;6.37;;;10.00;99.90;;;;;;5032651;28;20262;-54
2023/12/17 11:14:42;;;;;;;9.10;7.57;;;10.10;99.90;;;;;;5029031;28;20232;-55
2023/12/17 11:17:16;;;;;;;8.13;6.90;;;10.00;99.90;;;;;;5033112;28;20218;-56
2023/12/17 11:19:53;;;;;;;6.23;5.63;;;10.10;99.90;;;;;;5029238;28;20205;-54
2023/12/17 11:22:23;;;;;;;7.13;6.43;;;10.00;99.90;;;;;;5034496;28;20291;-54
2023/12/17 11:24:53;;;;;;;7.33;6.47;;;10.10;99.90;;;;;;5036197;28;20202;-55
2023/12/17 11:27:21;;;;;;;9.70;6.53;;;9.90;99.90;;;;;;5016563;28;20206;-54
2023/12/17 11:29:46;;;;;;;7.00;6.30;;;10.00;99.90;;;;;;5033185;28;20198;-54
2023/12/17 11:32:13;;;;;;;7.40;5.77;;;10.00;99.90;;;;;;5033594;28;20199;-55
2023/12/17 11:34:40;;;;;;;7.17;6.47;;;10.10;99.90;;;;;;5028529;28;20242;-55
2023/12/17 11:37:05;;;;;;;7.13;6.43;;;10.10;99.90;;;;;;5033957;28;20198;-54
2023/12/17 11:39:32;;;;;;;8.30;6.40;;;10.10;99.90;;;;;;5032813;28;22807;-55
2023/12/17 11:41:58;;;;;;;6.87;6.23;;;10.00;99.90;;;;;;5032412;28;20445;-56
2023/12/17 11:44:24;;;;;;;7.43;6.80;;;10.00;99.90;;;;;;5028087;28;20239;-54
2023/12/17 11:46:50;;;;;;;6.47;5.87;;;10.10;99.90;;;;;;5031775;28;20199;-54
2023/12/17 11:49:23;;;;;;;7.37;6.60;;;10.10;99.90;;;;;;5028693;28;20203;-55
2023/12/17 11:51:50;;;;;;;7.37;6.63;;;10.10;99.90;;;;;;5030937;28;20244;-56
2023/12/17 11:54:19;;;;;;;7.60;6.77;;;10.10;99.90;;;;;;5030163;28;20274;-55
2023/12/17 11:56:48;;;;;;;7.73;6.00;;;10.00;99.90;;;;;;5017566;28;20223;-55
2023/12/17 11:59:14;;;;;;;7.37;6.63;;;10.10;99.90;;;;;;5032411;28;20692;-55
2023/12/17 12:01:40;;;;;;;7.10;6.40;;;10.00;99.90;;;;;;5034075;28;20205;-55
2023/12/17 12:04:06;;;;;;;7.77;6.60;;;9.90;99.90;;;;;;5031696;28;20199;-55
2023/12/17 12:06:31;;;;;;;6.33;5.77;;;10.10;99.90;;;;;;5032263;28;20234;-55
2023/12/17 12:08:59;;;;;;;6.80;6.10;;;10.00;99.90;;;;;;5032265;28;20276;-55
2023/12/17 12:11:31;;;;;;;6.97;6.27;;;10.00;99.90;;;;;;5031629;28;20209;-55
2023/12/17 12:13:57;;;;;;;6.83;6.17;;;10.10;99.90;;;;;;5032173;28;20740;-55
2023/12/17 12:16:22;;;;;;;6.67;6.07;;;10.10;99.90;;;;;;5009774;28;20219;-55
2023/12/17 12:19:00;;;;;;;6.77;6.00;;;10.10;99.90;;;;;;5025110;28;20577;-54
2023/12/17 12:21:26;;;;;;;6.90;6.20;;;10.00;99.90;;;;;;5024483;28;20960;-53
2023/12/17 12:23:53;;;;;;;6.13;5.53;;;10.00;99.90;;;;;;5024987;28;20225;-55
2023/12/17 12:26:19;;;;;;;7.10;6.40;;;10.10;99.90;;;;;;5023795;28;20681;-54
2023/12/17 12:28:50;;;;;;;6.53;5.93;;;10.10;99.90;;;;;;5016300;28;20214;-54
2023/12/17 12:31:16;;;;;;;6.67;5.70;;;10.00;99.90;;;;;;5030253;28;20240;-54
2023/12/17 12:33:51;;;;;;;6.87;6.17;;;10.10;99.90;;;;;;5031183;28;20304;-54
2023/12/17 12:36:16;;;;;;;6.73;6.13;;;9.90;99.90;;;;;;5031667;28;20230;-54
2023/12/17 12:38:42;;;;;;;6.77;6.07;;;10.10;99.90;;;;;;5031746;28;21028;-54